Time;durP1;ratioP1;P1;durP2;ratioP2;P2;SDS_P1;SDS_P2;PMS_P1;PMS_P2;Temp;Humidity;BMP_temperature;BMP_pressure;BME280_temperature;BME280_humidity;BME280_pressure;Samples;Min_cycle;Max_cycle;Signal;HPM_P1;HPM_P2
2023/09/08 00:00:15;;;;;;;11.43;8.52;;;20.40;99.90;;;;;;5068740;28;20472;-63
2023/09/08 00:02:54;;;;;;;11.13;8.65;;;20.40;99.90;;;;;;5068295;28;20040;-63
2023/09/08 00:05:41;;;;;;;10.00;9.00;;;20.40;99.90;;;;;;5068179;28;20048;-64
2023/09/08 00:08:23;;;;;;;11.00;8.57;;;20.40;99.90;;;;;;5067713;28;20357;-63
2023/09/08 00:11:09;;;;;;;9.18;8.15;;;20.40;99.90;;;;;;5068356;28;20543;-64
2023/09/08 00:13:50;;;;;;;9.60;8.63;;;20.40;99.90;;;;;;5067934;28;20125;-64
2023/09/08 00:16:37;;;;;;;10.82;8.10;;;20.40;99.90;;;;;;5062494;28;20056;-63
2023/09/08 00:19:17;;;;;;;10.45;8.77;;;20.40;99.90;;;;;;5067774;28;20110;-63
2023/09/08 00:22:05;;;;;;;11.18;8.95;;;20.40;99.90;;;;;;5068061;28;20445;-64
2023/09/08 00:24:45;;;;;;;10.05;8.38;;;20.40;99.90;;;;;;5068607;28;20048;-64
2023/09/08 00:27:32;;;;;;;11.70;9.13;;;20.30;99.90;;;;;;5067728;28;20044;-64
2023/09/08 00:30:13;;;;;;;9.98;8.98;;;20.20;99.90;;;;;;5067918;28;20052;-64
2023/09/08 00:32:59;;;;;;;10.93;9.38;;;20.30;99.90;;;;;;5067790;28;20373;-64
2023/09/08 00:35:39;;;;;;;12.52;9.57;;;20.20;99.90;;;;;;5068324;28;20361;-64
2023/09/08 00:38:25;;;;;;;10.23;9.15;;;20.20;99.90;;;;;;5068535;28;20048;-63
2023/09/08 00:41:05;;;;;;;11.48;9.07;;;20.20;99.90;;;;;;5068144;28;20049;-65
2023/09/08 00:43:51;;;;;;;11.00;9.90;;;20.20;99.90;;;;;;5066957;28;20044;-65
2023/09/08 00:46:31;;;;;;;12.93;9.35;;;20.10;99.90;;;;;;5067485;28;20052;-64
2023/09/08 00:49:17;;;;;;;12.70;9.52;;;20.10;99.90;;;;;;5067768;28;20049;-64
2023/09/08 00:51:57;;;;;;;11.55;9.40;;;20.00;99.90;;;;;;5053290;28;20057;-64
2023/09/08 00:54:43;;;;;;;11.32;9.38;;;20.00;99.90;;;;;;5048111;28;20049;-64
2023/09/08 00:57:23;;;;;;;10.18;9.13;;;20.00;99.90;;;;;;5048077;28;20392;-64
2023/09/08 01:00:16;;;;;;;12.25;9.77;;;19.90;99.90;;;;;;5047881;28;20063;-64
2023/09/08 01:03:02;;;;;;;10.68;9.57;;;19.90;99.90;;;;;;5048680;28;20060;-63
2023/09/08 01:05:42;;;;;;;10.95;9.65;;;19.90;99.90;;;;;;5048401;28;20165;-63
2023/09/08 01:08:29;;;;;;;10.45;9.45;;;19.90;99.90;;;;;;5040445;28;20045;-65
2023/09/08 01:11:08;;;;;;;11.63;9.60;;;19.80;99.90;;;;;;5047979;28;20045;-65
2023/09/08 01:13:54;;;;;;;12.50;9.75;;;19.90;99.90;;;;;;5048444;28;20127;-64
2023/09/08 01:16:34;;;;;;;10.75;9.65;;;19.80;99.90;;;;;;5047917;28;20055;-65
2023/09/08 01:19:21;;;;;;;12.52;9.85;;;19.70;99.90;;;;;;5032078;28;20111;-64
2023/09/08 01:22:19;;;;;;;12.45;10.55;;;19.70;99.90;;;;;;5047871;28;20049;-64
2023/09/08 01:25:09;;;;;;;11.48;10.00;;;19.60;99.90;;;;;;5048006;28;20091;-65
2023/09/08 01:27:59;;;;;;;11.07;9.95;;;19.60;99.90;;;;;;5051064;28;20151;-65
2023/09/08 01:30:45;;;;;;;12.93;9.68;;;19.60;99.90;;;;;;5051929;28;20045;-64
2023/09/08 01:33:25;;;;;;;12.07;10.65;;;19.50;99.90;;;;;;5051742;28;20334;-65
2023/09/08 01:36:11;;;;;;;11.93;10.27;;;19.50;99.90;;;;;;5051095;28;20673;-65
2023/09/08 01:38:51;;;;;;;12.38;10.38;;;19.50;99.90;;;;;;5050998;28;20095;-65
2023/09/08 01:41:37;;;;;;;11.13;10.00;;;19.40;99.90;;;;;;5045257;28;20060;-65
2023/09/08 01:44:17;;;;;;;11.50;10.23;;;19.50;99.90;;;;;;5070597;28;20460;-64
2023/09/08 01:47:03;;;;;;;11.27;10.13;;;19.40;99.90;;;;;;5050336;28;20087;-64
2023/09/08 01:49:43;;;;;;;12.10;10.88;;;19.40;99.90;;;;;;5051090;28;20103;-64
2023/09/08 01:52:29;;;;;;;14.50;9.85;;;19.40;99.90;;;;;;5051371;28;20048;-65
2023/09/08 01:55:11;;;;;;;11.10;10.00;;;19.30;99.90;;;;;;5050583;28;20103;-65
2023/09/08 01:57:57;;;;;;;11.30;10.15;;;19.30;99.90;;;;;;5050579;28;20451;-66
2023/09/08 02:00:37;;;;;;;11.70;10.35;;;19.30;99.90;;;;;;5050931;28;20063;-65
2023/09/08 02:03:23;;;;;;;11.93;10.73;;;19.20;99.90;;;;;;5050985;28;20041;-64
2023/09/08 02:06:03;;;;;;;11.70;10.50;;;19.20;99.90;;;;;;5050743;28;20056;-65
2023/09/08 02:08:49;;;;;;;11.68;10.05;;;19.20;99.90;;;;;;5050281;28;20060;-65
2023/09/08 02:11:29;;;;;;;12.15;10.48;;;19.20;99.90;;;;;;5050422;28;20461;-64
2023/09/08 02:14:15;;;;;;;11.27;10.18;;;19.20;99.90;;;;;;5050741;28;20365;-65
2023/09/08 02:16:55;;;;;;;11.88;10.68;;;19.20;99.90;;;;;;5051181;28;20057;-64
2023/09/08 02:19:41;;;;;;;12.93;10.95;;;19.10;99.90;;;;;;5050357;28;20056;-64
2023/09/08 02:22:21;;;;;;;11.50;10.20;;;19.00;99.90;;;;;;5050600;28;20049;-64
2023/09/08 02:25:07;;;;;;;12.38;10.85;;;19.00;99.90;;;;;;5050786;28;20045;-65
2023/09/08 02:27:47;;;;;;;11.55;10.35;;;19.00;99.90;;;;;;5050161;28;20103;-65
2023/09/08 02:30:33;;;;;;;11.25;10.15;;;18.90;99.90;;;;;;5050789;28;20480;-64
2023/09/08 02:33:13;;;;;;;12.32;11.02;;;18.90;99.90;;;;;;5034399;28;20061;-64
2023/09/08 02:36:05;;;;;;;12.95;10.32;;;18.80;99.90;;;;;;5050120;28;20056;-64
2023/09/08 02:38:45;;;;;;;12.90;10.65;;;18.80;99.90;;;;;;5049836;28;20079;-64
2023/09/08 02:41:31;;;;;;;13.02;10.70;;;18.90;99.90;;;;;;5050520;28;20052;-64
2023/09/08 02:44:11;;;;;;;12.93;10.23;;;18.80;99.90;;;;;;5050543;28;20365;-65
2023/09/08 02:46:57;;;;;;;11.05;9.93;;;18.70;99.90;;;;;;5031857;28;20049;-65
2023/09/08 02:49:37;;;;;;;12.85;10.57;;;18.70;99.90;;;;;;5050361;28;20045;-64
2023/09/08 02:52:30;;;;;;;12.30;10.63;;;18.70;99.90;;;;;;5050737;28;20052;-65
2023/09/08 02:55:16;;;;;;;13.77;10.88;;;18.60;99.90;;;;;;5050589;28;20053;-65
2023/09/08 02:57:56;;;;;;;12.40;11.07;;;18.60;99.90;;;;;;5066418;28;20055;-65
2023/09/08 03:00:42;;;;;;;12.43;10.98;;;18.60;99.90;;;;;;5070007;28;20048;-65
2023/09/08 03:03:22;;;;;;;13.40;10.60;;;18.60;99.90;;;;;;5042049;28;20049;-65
2023/09/08 03:06:09;;;;;;;14.35;10.88;;;18.50;99.90;;;;;;5049398;28;20358;-64
2023/09/08 03:08:49;;;;;;;11.35;10.15;;;18.50;99.90;;;;;;5049286;28;20079;-64
2023/09/08 03:11:37;;;;;;;13.18;10.75;;;18.50;99.90;;;;;;5049667;28;20045;-64
2023/09/08 03:14:16;;;;;;;13.05;11.15;;;18.50;99.90;;;;;;5049481;28;20114;-65
2023/09/08 03:17:02;;;;;;;14.63;10.93;;;18.50;99.90;;;;;;5037564;28;20060;-64
2023/09/08 03:19:42;;;;;;;15.05;11.18;;;18.40;99.90;;;;;;5069493;28;20055;-64
2023/09/08 03:22:28;;;;;;;12.85;11.55;;;18.50;99.90;;;;;;5024191;28;20151;-65
2023/09/08 03:25:08;;;;;;;15.80;11.65;;;18.40;99.90;;;;;;5049357;28;20049;-64
2023/09/08 03:27:54;;;;;;;13.40;11.50;;;18.40;99.90;;;;;;5048752;28;20350;-66
2023/09/08 03:30:34;;;;;;;15.27;11.77;;;18.30;99.90;;;;;;5049680;28;20118;-65
2023/09/08 03:33:20;;;;;;;13.93;11.32;;;18.30;99.90;;;;;;5031426;28;20045;-65
2023/09/08 03:36:00;;;;;;;13.38;11.95;;;18.30;99.90;;;;;;5049074;28;20045;-65
2023/09/08 03:38:46;;;;;;;13.55;11.20;;;18.20;99.90;;;;;;5049947;28;20063;-64
2023/09/08 03:41:26;;;;;;;12.57;11.27;;;18.20;99.90;;;;;;5049699;28;20110;-64
2023/09/08 03:44:12;;;;;;;14.55;11.80;;;18.10;99.90;;;;;;5048911;28;20041;-64
2023/09/08 03:46:52;;;;;;;14.15;11.80;;;18.10;99.90;;;;;;5048474;28;20222;-64
2023/09/08 03:49:38;;;;;;;14.30;11.68;;;18.10;99.90;;;;;;5048414;28;20056;-65
2023/09/08 03:52:18;;;;;;;13.93;12.43;;;18.10;99.90;;;;;;5050459;28;20065;-64
2023/09/08 03:55:05;;;;;;;14.32;11.85;;;18.00;99.90;;;;;;5048662;28;20048;-64
2023/09/08 03:57:45;;;;;;;13.40;12.05;;;18.10;99.90;;;;;;5048644;28;20040;-65
2023/09/08 04:00:31;;;;;;;13.90;12.32;;;18.00;99.90;;;;;;5049015;28;20060;-65
2023/09/08 04:03:11;;;;;;;14.77;12.57;;;18.00;99.90;;;;;;5048796;28;20060;-64
2023/09/08 04:05:57;;;;;;;14.18;12.38;;;18.00;99.90;;;;;;5048069;28;20045;-65
2023/09/08 04:08:37;;;;;;;13.75;12.15;;;17.90;99.90;;;;;;5048506;28;20045;-64
2023/09/08 04:11:23;;;;;;;14.30;12.27;;;17.80;99.90;;;;;;5048631;28;20545;-65
2023/09/08 04:14:03;;;;;;;13.75;12.35;;;17.80;99.90;;;;;;5048740;28;20056;-64
2023/09/08 04:16:49;;;;;;;17.75;12.65;;;17.80;99.90;;;;;;5048075;28;20076;-63
2023/09/08 04:19:29;;;;;;;13.13;11.82;;;17.70;99.90;;;;;;5041503;28;20049;-65
2023/09/08 04:22:15;;;;;;;15.65;12.68;;;17.70;99.90;;;;;;5048003;28;20049;-65
2023/09/08 04:24:56;;;;;;;15.05;13.05;;;17.70;99.90;;;;;;5048488;28;20052;-64
2023/09/08 04:27:41;;;;;;;14.50;13.00;;;17.70;99.90;;;;;;5028152;28;20049;-65
2023/09/08 04:30:21;;;;;;;15.60;13.18;;;17.60;99.90;;;;;;5028628;28;20049;-64
2023/09/08 04:33:07;;;;;;;14.50;13.00;;;17.60;99.90;;;;;;5028358;28;20041;-65
2023/09/08 04:35:47;;;;;;;14.30;12.88;;;17.60;99.90;;;;;;5034951;28;20045;-64
2023/09/08 04:38:33;;;;;;;15.23;12.65;;;17.70;99.90;;;;;;5047882;28;20063;-64
2023/09/08 04:41:13;;;;;;;17.45;12.90;;;17.60;99.90;;;;;;5048842;28;20071;-65
2023/09/08 04:43:59;;;;;;;14.55;12.73;;;17.60;99.90;;;;;;5048894;28;20449;-64
2023/09/08 04:46:39;;;;;;;14.38;12.88;;;17.60;99.90;;;;;;5047437;28;20041;-65
2023/09/08 04:49:25;;;;;;;14.65;13.13;;;17.60;99.90;;;;;;5048797;28;20045;-64
2023/09/08 04:52:05;;;;;;;13.95;12.55;;;17.60;99.90;;;;;;5049655;28;20114;-66
2023/09/08 04:54:51;;;;;;;18.92;13.55;;;17.50;99.90;;;;;;5087983;28;20348;-65
2023/09/08 04:57:31;;;;;;;14.27;12.77;;;17.50;99.90;;;;;;5048004;28;20045;-64
2023/09/08 05:00:18;;;;;;;17.83;12.90;;;17.50;99.90;;;;;;5048114;28;20059;-64
2023/09/08 05:02:57;;;;;;;15.02;12.68;;;17.50;99.90;;;;;;5052401;28;20128;-64
2023/09/08 05:05:44;;;;;;;14.52;11.90;;;17.50;99.90;;;;;;5057980;28;20040;-64
2023/09/08 05:08:27;;;;;;;15.02;13.43;;;17.50;99.90;;;;;;5072297;28;20074;-65
2023/09/08 05:11:13;;;;;;;14.35;12.88;;;17.50;99.90;;;;;;5056164;28;20048;-64
2023/09/08 05:13:53;;;;;;;13.98;12.50;;;17.50;99.90;;;;;;5071774;28;20041;-64
2023/09/08 05:16:45;;;;;;;15.40;13.18;;;17.40;99.90;;;;;;5071224;28;20051;-64
2023/09/08 05:19:25;;;;;;;14.57;12.07;;;17.40;99.90;;;;;;5072180;28;20139;-64
2023/09/08 05:22:11;;;;;;;17.35;13.25;;;17.50;99.90;;;;;;5071642;28;20365;-64
2023/09/08 05:24:51;;;;;;;16.77;13.43;;;17.50;99.90;;;;;;5065578;28;20044;-65
2023/09/08 05:27:37;;;;;;;14.50;12.07;;;17.50;99.90;;;;;;5070091;28;20041;-65
2023/09/08 05:30:17;;;;;;;16.23;12.45;;;17.60;99.90;;;;;;5072439;28;20056;-66
2023/09/08 05:33:03;;;;;;;14.07;12.65;;;17.50;99.90;;;;;;5071704;28;20044;-65
2023/09/08 05:35:43;;;;;;;14.55;13.15;;;17.60;99.90;;;;;;5068164;28;20105;-65
2023/09/08 05:38:29;;;;;;;13.73;12.32;;;17.60;99.90;;;;;;5051652;28;20458;-65
2023/09/08 05:41:09;;;;;;;16.60;13.38;;;17.70;99.90;;;;;;5069124;28;20040;-65
2023/09/08 05:43:55;;;;;;;16.50;12.55;;;17.70;99.90;;;;;;5076083;28;20059;-64
2023/09/08 05:46:35;;;;;;;13.15;11.85;;;18.30;99.90;;;;;;5077824;28;20434;-64
2023/09/08 05:49:21;;;;;;;16.17;12.32;;;19.00;99.90;;;;;;5062889;28;20052;-64
2023/09/08 05:52:07;;;;;;;14.10;12.27;;;19.70;99.90;;;;;;5071292;28;20502;-65
2023/09/08 05:54:54;;;;;;;13.73;11.57;;;20.40;99.90;;;;;;5070789;28;20060;-64
2023/09/08 05:57:34;;;;;;;13.93;11.60;;;20.90;99.90;;;;;;5050880;28;20049;-63
2023/09/08 06:00:22;;;;;;;14.18;12.75;;;21.30;99.90;;;;;;5042635;28;20339;-64
2023/09/08 06:03:02;;;;;;;12.80;11.32;;;21.60;99.90;;;;;;5050883;28;20365;-64
2023/09/08 06:05:47;;;;;;;13.25;11.95;;;22.00;99.90;;;;;;5056945;28;20071;-65
2023/09/08 06:08:27;;;;;;;12.70;11.38;;;22.20;99.90;;;;;;5070370;28;20052;-65
2023/09/08 06:11:14;;;;;;;12.90;11.63;;;22.50;99.90;;;;;;5068910;28;20453;-64
2023/09/08 06:13:58;;;;;;;13.25;11.25;;;22.70;99.90;;;;;;5071662;28;20044;-65
2023/09/08 06:16:44;;;;;;;13.25;10.55;;;22.80;99.90;;;;;;5072594;28;20135;-64
2023/09/08 06:19:24;;;;;;;11.75;10.52;;;23.00;99.90;;;;;;5078672;28;20114;-64
2023/09/08 06:22:10;;;;;;;11.95;10.75;;;23.00;99.90;;;;;;5075436;28;20044;-64
2023/09/08 06:24:50;;;;;;;12.15;10.90;;;23.10;99.90;;;;;;5076273;28;20040;-65
2023/09/08 06:27:36;;;;;;;12.95;11.27;;;23.10;99.90;;;;;;5077689;28;20037;-65
2023/09/08 06:30:18;;;;;;;12.73;11.20;;;23.00;99.90;;;;;;5077945;28;20055;-62
2023/09/08 06:33:04;;;;;;;14.30;11.52;;;23.10;99.90;;;;;;5080075;28;20043;-65
2023/09/08 06:35:44;;;;;;;12.48;11.18;;;23.10;99.90;;;;;;5076551;28;20115;-63
2023/09/08 06:38:31;;;;;;;12.02;10.75;;;23.20;99.90;;;;;;5074961;28;20047;-64
2023/09/08 06:41:17;;;;;;;11.48;10.38;;;23.40;99.90;;;;;;5068965;28;20372;-63
2023/09/08 06:44:04;;;;;;;11.82;10.35;;;23.30;99.90;;;;;;5067833;28;20049;-63
2023/09/08 06:46:44;;;;;;;12.13;10.30;;;23.50;99.90;;;;;;5064420;28;20511;-64
2023/09/08 06:49:30;;;;;;;11.80;10.60;;;23.80;99.90;;;;;;5069039;28;20390;-63
2023/09/08 06:52:10;;;;;;;11.73;10.48;;;23.90;99.90;;;;;;5050307;28;20057;-63
2023/09/08 06:54:56;;;;;;;12.30;10.98;;;24.10;99.90;;;;;;5048549;28;20052;-63
2023/09/08 06:57:36;;;;;;;12.38;11.07;;;24.30;99.90;;;;;;5049418;28;20702;-64
2023/09/08 07:00:23;;;;;;;12.32;10.95;;;24.30;99.90;;;;;;5049585;28;20051;-64
2023/09/08 07:03:02;;;;;;;11.80;10.60;;;24.10;99.90;;;;;;5049726;28;20112;-63
2023/09/08 07:05:49;;;;;;;12.50;10.63;;;23.80;99.90;;;;;;5040092;28;20361;-64
2023/09/08 07:08:29;;;;;;;11.45;10.23;;;23.50;99.90;;;;;;5069135;28;20048;-64
2023/09/08 07:11:16;;;;;;;14.75;10.48;;;23.30;99.90;;;;;;5069765;28;20143;-63
2023/09/08 07:13:56;;;;;;;12.27;10.30;;;23.10;99.90;;;;;;5069760;28;20398;-62
2023/09/08 07:16:43;;;;;;;12.52;11.23;;;23.00;99.90;;;;;;5061682;28;20055;-63
2023/09/08 07:19:22;;;;;;;11.80;10.48;;;23.00;99.90;;;;;;5069471;28;20057;-63
2023/09/08 07:22:09;;;;;;;11.02;9.85;;;23.10;99.90;;;;;;5069821;28;20059;-63
2023/09/08 07:24:48;;;;;;;12.07;10.80;;;23.10;99.90;;;;;;5069947;28;20132;-66
2023/09/08 07:27:43;;;;;;;11.50;10.05;;;23.10;99.90;;;;;;5045364;28;20155;-64
2023/09/08 07:30:22;;;;;;;11.65;10.15;;;23.20;99.90;;;;;;5031924;28;20206;-65
2023/09/08 07:33:01;;;;;;;11.45;10.32;;;23.30;99.90;;;;;;5029469;28;20227;-65
2023/09/08 07:35:48;;;;;;;11.35;9.52;;;23.40;99.90;;;;;;5034386;28;20060;-64
2023/09/08 07:38:27;;;;;;;12.73;9.65;;;23.50;99.90;;;;;;5067420;28;20117;-63
2023/09/08 07:41:17;;;;;;;10.05;9.02;;;23.60;99.90;;;;;;5073905;28;20055;-64
2023/09/08 07:43:56;;;;;;;13.55;9.80;;;23.80;99.90;;;;;;5077182;28;20457;-64
2023/09/08 07:46:44;;;;;;;12.27;9.75;;;23.80;99.90;;;;;;5073462;28;20058;-66
2023/09/08 07:49:24;;;;;;;10.75;8.95;;;23.80;99.90;;;;;;5069226;28;20056;-64
2023/09/08 07:52:17;;;;;;;12.23;9.63;;;23.90;99.90;;;;;;5059919;28;20269;-64
2023/09/08 07:55:04;;;;;;;13.75;10.57;;;24.00;99.90;;;;;;5053245;28;20413;-64
2023/09/08 07:57:43;;;;;;;10.77;9.68;;;24.10;99.90;;;;;;5063022;28;20049;-65
2023/09/08 08:00:30;;;;;;;10.25;9.13;;;24.20;99.90;;;;;;5048429;28;20052;-64
2023/09/08 08:03:10;;;;;;;10.30;8.85;;;24.20;99.90;;;;;;5048759;28;20115;-64
2023/09/08 08:05:58;;;;;;;12.77;9.13;;;24.30;99.90;;;;;;5055037;28;20044;-64
2023/09/08 08:08:38;;;;;;;11.43;9.43;;;24.50;99.90;;;;;;5067836;28;20044;-65
2023/09/08 08:11:25;;;;;;;10.52;9.23;;;24.50;99.90;;;;;;5069246;28;20063;-63
2023/09/08 08:14:04;;;;;;;9.93;8.90;;;24.60;99.90;;;;;;5069939;28;20048;-64
2023/09/08 08:16:51;;;;;;;11.30;8.48;;;24.70;99.90;;;;;;5060734;28;20567;-64
2023/09/08 08:19:30;;;;;;;10.70;9.40;;;24.80;99.90;;;;;;5047596;28;20376;-63
2023/09/08 08:22:17;;;;;;;10.27;8.43;;;25.00;99.90;;;;;;5080717;28;20048;-64
2023/09/08 08:24:56;;;;;;;9.85;8.60;;;25.20;99.90;;;;;;5070478;28;20048;-63
2023/09/08 08:27:43;;;;;;;10.10;7.60;;;25.30;99.90;;;;;;5083242;28;20345;-64
2023/09/08 08:30:22;;;;;;;10.32;8.38;;;25.40;99.90;;;;;;5053043;28;20079;-64
2023/09/08 08:33:09;;;;;;;10.40;8.02;;;25.50;99.90;;;;;;5076001;28;20453;-64
2023/09/08 08:35:54;;;;;;;15.85;8.88;;;25.60;99.90;;;;;;5068696;28;20040;-65
2023/09/08 08:38:41;;;;;;;10.35;8.05;;;25.70;99.90;;;;;;5074436;28;20389;-65
2023/09/08 08:41:20;;;;;;;9.85;8.15;;;25.70;99.90;;;;;;5068745;28;20044;-65
2023/09/08 08:44:07;;;;;;;10.50;7.88;;;25.90;99.90;;;;;;5068199;28;20044;-63
2023/09/08 08:46:49;;;;;;;11.70;7.78;;;26.00;99.90;;;;;;5067684;28;20056;-63
2023/09/08 08:49:36;;;;;;;9.15;7.60;;;26.00;99.90;;;;;;5068253;28;20060;-63
2023/09/08 08:52:23;;;;;;;10.38;7.70;;;26.20;99.90;;;;;;5071012;28;20051;-64
2023/09/08 08:55:11;;;;;;;10.07;7.80;;;26.30;99.90;;;;;;5072910;28;20040;-63
2023/09/08 08:57:50;;;;;;;10.40;8.55;;;26.30;99.90;;;;;;5055706;28;20106;-64
2023/09/08 09:00:38;;;;;;;9.07;7.85;;;26.40;99.90;;;;;;5076685;28;20441;-64
2023/09/08 09:03:18;;;;;;;10.73;8.27;;;26.40;99.90;;;;;;5048270;28;20068;-63
2023/09/08 09:06:04;;;;;;;11.15;8.63;;;26.40;99.90;;;;;;5055701;28;20051;-63
2023/09/08 09:08:44;;;;;;;9.55;8.50;;;26.50;99.90;;;;;;5068382;28;20060;-65
2023/09/08 09:11:31;;;;;;;9.65;8.07;;;26.60;99.90;;;;;;5069295;28;20156;-65
2023/09/08 09:14:10;;;;;;;9.68;8.15;;;26.60;99.90;;;;;;5066991;28;20475;-64
2023/09/08 09:16:57;;;;;;;9.95;7.45;;;26.60;99.90;;;;;;5066553;28;20054;-63
2023/09/08 09:19:37;;;;;;;11.15;8.55;;;26.80;99.90;;;;;;5068861;28;20052;-64
2023/09/08 09:22:23;;;;;;;9.23;8.20;;;26.90;99.90;;;;;;5080359;28;20348;-64
2023/09/08 09:25:07;;;;;;;10.55;8.57;;;27.00;99.90;;;;;;5072776;28;20048;-62
2023/09/08 09:27:54;;;;;;;12.02;8.50;;;27.00;99.90;;;;;;5065826;28;20048;-63
2023/09/08 09:30:51;;;;;;;9.95;8.30;;;27.10;99.90;;;;;;5075170;28;20044;-64
2023/09/08 09:33:38;;;;;;;10.50;8.18;;;27.10;99.90;;;;;;5048518;28;20094;-63
2023/09/08 09:36:26;;;;;;;12.38;9.43;;;27.20;99.90;;;;;;5056830;28;20485;-63
2023/09/08 09:39:13;;;;;;;10.05;8.32;;;27.20;99.90;;;;;;5068203;28;20056;-62
2023/09/08 09:41:53;;;;;;;9.73;8.73;;;27.30;99.90;;;;;;5067531;28;20322;-63
2023/09/08 09:44:40;;;;;;;9.48;8.32;;;27.30;99.90;;;;;;5079598;28;20059;-63
2023/09/08 09:47:21;;;;;;;11.77;8.90;;;27.30;99.90;;;;;;5072336;28;20052;-63
2023/09/08 09:50:08;;;;;;;10.65;9.45;;;27.30;99.90;;;;;;5079977;28;20040;-63
2023/09/08 09:52:50;;;;;;;9.63;8.63;;;27.40;99.90;;;;;;5079842;27;20056;-63
2023/09/08 09:55:39;;;;;;;10.70;8.63;;;27.50;99.90;;;;;;5077631;28;20055;-63
2023/09/08 09:58:18;;;;;;;9.60;8.50;;;27.60;99.90;;;;;;5072235;28;20040;-64
2023/09/08 10:01:06;;;;;;;9.00;7.57;;;27.70;99.90;;;;;;5071278;28;20161;-64
2023/09/08 10:03:45;;;;;;;9.35;8.32;;;27.80;99.90;;;;;;5074900;28;20045;-63
2023/09/08 10:06:33;;;;;;;9.98;8.15;;;27.70;99.90;;;;;;5069146;28;20040;-63
2023/09/08 10:09:13;;;;;;;9.90;8.25;;;27.80;99.90;;;;;;5069985;28;20117;-64
2023/09/08 10:12:04;;;;;;;9.20;7.18;;;27.80;99.90;;;;;;5070226;28;20373;-64
2023/09/08 10:14:47;;;;;;;8.90;7.38;;;27.90;99.90;;;;;;5075265;28;20058;-63
2023/09/08 10:17:35;;;;;;;8.05;7.18;;;28.00;99.90;;;;;;5044218;28;20252;-64
2023/09/08 10:20:16;;;;;;;8.52;7.22;;;28.20;99.90;;;;;;5077589;28;20362;-64
2023/09/08 10:23:09;;;;;;;10.93;7.88;;;28.20;99.90;;;;;;5074077;28;20052;-64
2023/09/08 10:25:56;;;;;;;10.07;7.50;;;28.30;99.90;;;;;;5073445;28;20049;-63
2023/09/08 10:28:44;;;;;;;10.88;7.60;;;28.30;99.90;;;;;;5071311;28;20369;-63
2023/09/08 10:31:23;;;;;;;9.10;7.03;;;28.40;99.90;;;;;;5068117;28;20547;-63
2023/09/08 10:34:10;;;;;;;9.55;7.03;;;28.60;99.90;;;;;;5076664;28;20048;-64
2023/09/08 10:36:50;;;;;;;9.02;7.03;;;28.50;99.90;;;;;;5072754;28;20113;-64
2023/09/08 10:39:39;;;;;;;9.00;6.97;;;28.50;99.90;;;;;;5064187;28;20052;-64
2023/09/08 10:42:25;;;;;;;9.27;7.00;;;28.50;99.90;;;;;;5070048;28;20049;-64
2023/09/08 10:45:17;;;;;;;9.68;6.35;;;28.60;99.90;;;;;;5069782;28;20165;-64
2023/09/08 10:47:58;;;;;;;10.30;7.35;;;28.50;99.90;;;;;;5071382;28;20375;-63
2023/09/08 10:50:44;;;;;;;7.45;6.60;;;28.60;99.90;;;;;;5070690;28;20076;-64
2023/09/08 10:53:25;;;;;;;8.00;6.63;;;28.50;99.90;;;;;;5057601;28;20456;-64
2023/09/08 10:56:11;;;;;;;7.40;6.68;;;28.60;99.90;;;;;;5056338;28;20401;-64
2023/09/08 10:58:56;;;;;;;9.68;7.85;;;28.80;99.90;;;;;;5069559;28;20044;-64
2023/09/08 11:01:43;;;;;;;8.85;7.57;;;28.90;99.90;;;;;;5069914;28;20041;-64
2023/09/08 11:04:23;;;;;;;8.32;6.75;;;29.00;99.90;;;;;;5061863;28;20321;-64
2023/09/08 11:07:10;;;;;;;9.55;7.40;;;28.90;99.90;;;;;;5069467;28;20060;-64
2023/09/08 11:09:49;;;;;;;10.55;7.10;;;29.10;99.90;;;;;;5060805;28;20364;-64
2023/09/08 11:12:36;;;;;;;10.25;6.95;;;29.10;99.90;;;;;;5054718;28;20059;-65
2023/09/08 11:15:16;;;;;;;9.05;7.10;;;29.40;99.90;;;;;;5069511;28;20044;-64
2023/09/08 11:18:06;;;;;;;9.32;6.63;;;29.30;99.90;;;;;;5063076;28;20637;-64
2023/09/08 11:20:45;;;;;;;9.48;7.35;;;29.30;99.90;;;;;;5078903;28;20102;-64
2023/09/08 11:23:32;;;;;;;7.72;6.78;;;29.30;99.90;;;;;;5056610;28;20041;-64
2023/09/08 11:26:11;;;;;;;9.18;7.43;;;29.40;99.90;;;;;;5082401;28;20048;-64
2023/09/08 11:28:58;;;;;;;10.25;6.85;;;29.40;99.90;;;;;;5078127;28;20064;-64
2023/09/08 11:31:38;;;;;;;8.65;6.90;;;29.50;99.90;;;;;;5075742;28;20351;-64
2023/09/08 11:34:24;;;;;;;9.07;7.32;;;29.50;99.90;;;;;;5074593;28;20428;-63
2023/09/08 11:37:04;;;;;;;9.45;6.90;;;29.60;99.90;;;;;;5081339;28;20105;-63
2023/09/08 11:39:50;;;;;;;8.85;7.00;;;29.60;99.90;;;;;;5073805;28;20056;-64
2023/09/08 11:42:30;;;;;;;8.70;7.43;;;29.60;99.90;;;;;;5078666;28;20056;-64
2023/09/08 11:45:21;;;;;;;9.98;7.50;;;29.60;99.90;;;;;;5069888;28;20066;-64
2023/09/08 11:48:01;;;;;;;10.32;7.90;;;29.60;99.90;;;;;;5070750;28;20147;-63
2023/09/08 11:50:47;;;;;;;9.50;7.32;;;29.70;99.90;;;;;;5070874;28;20052;-64
2023/09/08 11:53:29;;;;;;;8.90;6.50;;;29.70;99.90;;;;;;5070423;28;20114;-63
2023/09/08 11:56:15;;;;;;;9.13;7.00;;;29.80;99.90;;;;;;5067966;28;20393;-63
2023/09/08 11:58:55;;;;;;;9.70;7.38;;;29.80;99.90;;;;;;5072262;28;20060;-63
2023/09/08 12:01:41;;;;;;;9.65;7.30;;;29.80;99.90;;;;;;5090590;28;20051;-64
2023/09/08 12:04:25;;;;;;;7.40;6.45;;;29.90;99.90;;;;;;5041982;28;20522;-64
2023/09/08 12:07:18;;;;;;;7.82;6.55;;;29.80;99.90;;;;;;5062022;28;20056;-64
2023/09/08 12:09:58;;;;;;;7.10;6.40;;;29.80;99.10;;;;;;5051435;28;20436;-63
2023/09/08 12:12:48;;;;;;;7.60;6.80;;;29.90;99.40;;;;;;5050392;28;20045;-63
2023/09/08 12:15:37;;;;;;;10.82;6.72;;;30.00;99.60;;;;;;5059552;28;20079;-63
2023/09/08 12:18:38;;;;;;;9.00;6.18;;;30.10;99.70;;;;;;5062303;28;20067;-63
2023/09/08 12:21:18;;;;;;;10.13;6.82;;;30.00;99.60;;;;;;5070627;28;20449;-62
2023/09/08 12:24:04;;;;;;;14.25;8.88;;;30.00;99.80;;;;;;5077886;28;20321;-64
2023/09/08 12:26:44;;;;;;;6.95;6.00;;;29.90;99.40;;;;;;5069771;28;20129;-63
2023/09/08 12:29:30;;;;;;;9.07;6.40;;;30.10;99.40;;;;;;5069703;28;20052;-63
2023/09/08 12:32:10;;;;;;;7.15;6.25;;;29.90;98.70;;;;;;5069507;28;20105;-64
2023/09/08 12:34:57;;;;;;;6.95;5.95;;;30.00;99.40;;;;;;5067771;28;20047;-64
2023/09/08 12:37:40;;;;;;;7.97;6.57;;;30.10;98.70;;;;;;5067607;28;20048;-63
2023/09/08 12:40:27;;;;;;;7.50;6.10;;;30.00;99.00;;;;;;5068798;28;20060;-64
2023/09/08 12:43:07;;;;;;;7.75;6.55;;;30.10;99.00;;;;;;5068909;28;20110;-63
2023/09/08 12:45:53;;;;;;;8.70;6.40;;;30.10;99.30;;;;;;5064883;28;20060;-65
2023/09/08 12:48:33;;;;;;;9.70;5.90;;;30.20;99.40;;;;;;5065983;28;20582;-64
2023/09/08 12:51:19;;;;;;;7.63;6.30;;;30.30;99.30;;;;;;5076024;28;20048;-63
2023/09/08 12:54:12;;;;;;;7.88;5.90;;;30.30;99.00;;;;;;5057693;28;20041;-64
2023/09/08 12:56:58;;;;;;;8.27;6.18;;;30.20;98.90;;;;;;5055265;28;20378;-63
2023/09/08 12:59:38;;;;;;;8.20;5.60;;;30.30;98.50;;;;;;5048756;28;20041;-63
2023/09/08 13:02:24;;;;;;;8.02;5.88;;;30.30;98.60;;;;;;5048825;28;20053;-64
2023/09/08 13:05:04;;;;;;;6.75;5.82;;;30.50;98.40;;;;;;5048693;28;20484;-63
2023/09/08 13:07:50;;;;;;;5.45;4.88;;;30.50;98.50;;;;;;5033675;28;20045;-64
2023/09/08 13:10:30;;;;;;;8.55;6.18;;;30.40;98.00;;;;;;5048818;28;20053;-64
2023/09/08 13:13:16;;;;;;;10.43;6.53;;;30.40;98.30;;;;;;5047824;28;20481;-63
2023/09/08 13:15:56;;;;;;;6.40;5.65;;;30.50;98.40;;;;;;5047809;28;20049;-64
2023/09/08 13:18:44;;;;;;;7.65;5.43;;;30.40;98.50;;;;;;5048682;28;20049;-64
2023/09/08 13:21:24;;;;;;;8.32;5.47;;;30.50;97.90;;;;;;5051095;28;20045;-64
2023/09/08 13:24:12;;;;;;;6.93;5.38;;;30.60;98.30;;;;;;5054382;28;20059;-64
2023/09/08 13:26:52;;;;;;;6.93;5.43;;;30.60;97.80;;;;;;5053662;28;20061;-63
2023/09/08 13:29:38;;;;;;;6.03;5.35;;;30.60;97.90;;;;;;5054183;28;20347;-63
2023/09/08 13:32:20;;;;;;;7.30;5.43;;;30.50;97.50;;;;;;5054428;28;20057;-63
2023/09/08 13:35:09;;;;;;;5.93;5.30;;;30.60;97.50;;;;;;5035788;28;20468;-64
2023/09/08 13:37:49;;;;;;;6.45;5.03;;;30.50;97.10;;;;;;5055127;28;20049;-63
2023/09/08 13:40:35;;;;;;;7.22;5.60;;;30.50;97.30;;;;;;5055856;28;20330;-64
2023/09/08 13:43:15;;;;;;;6.80;5.43;;;30.50;97.30;;;;;;5055831;28;20450;-64
2023/09/08 13:46:01;;;;;;;10.23;6.28;;;30.50;97.40;;;;;;5055482;28;20114;-65
2023/09/08 13:48:41;;;;;;;6.88;5.43;;;30.50;97.30;;;;;;5055506;28;20409;-63
2023/09/08 13:51:34;;;;;;;7.57;5.38;;;30.50;97.30;;;;;;5063328;28;20048;-63
2023/09/08 13:54:20;;;;;;;6.30;5.20;;;30.50;97.40;;;;;;5047184;28;20052;-64
2023/09/08 13:57:08;;;;;;;7.28;5.32;;;30.50;97.40;;;;;;5073772;28;20048;-64
2023/09/08 13:59:54;;;;;;;5.43;4.93;;;30.50;97.20;;;;;;5084296;28;20047;-64